sensor_id;sensor_type;location;lat;lon;timestamp;pressure;altitude;pressure_sealevel;temperature;humidity
3444;BME280;1736;52.068;6.968;2023-04-22T00:02:21;100398.72;;;8.90;100.00
3444;BME280;1736;52.068;6.968;2023-04-22T00:04:48;100393.84;;;8.85;100.00
3444;BME280;1736;52.068;6.968;2023-04-22T00:07:15;100396.34;;;8.87;100.00
3444;BME280;1736;52.068;6.968;2023-04-22T00:09:42;100388.66;;;8.84;100.00
3444;BME280;1736;52.068;6.968;2023-04-22T00:12:11;100380.34;;;8.88;100.00
3444;BME280;1736;52.068;6.968;2023-04-22T00:14:38;100380.34;;;8.88;100.00
3444;BME280;1736;52.068;6.968;2023-04-22T00:17:04;100381.09;;;8.79;100.00
3444;BME280;1736;52.068;6.968;2023-04-22T00:19:32;100376.03;;;8.76;100.00
3444;BME280;1736;52.068;6.968;2023-04-22T00:21:58;100375.69;;;8.70;100.00
3444;BME280;1736;52.068;6.968;2023-04-22T00:24:25;100372.69;;;8.63;100.00
3444;BME280;1736;52.068;6.968;2023-04-22T00:26:52;100368.75;;;8.58;100.00
3444;BME280;1736;52.068;6.968;2023-04-22T00:29:20;100363.59;;;8.56;100.00
3444;BME280;1736;52.068;6.968;2023-04-22T00:31:46;100365.63;;;8.53;100.00
3444;BME280;1736;52.068;6.968;2023-04-22T00:34:13;100365.63;;;8.53;100.00
3444;BME280;1736;52.068;6.968;2023-04-22T00:36:41;100366.97;;;8.47;100.00
3444;BME280;1736;52.068;6.968;2023-04-22T00:39:08;100355.91;;;8.42;100.00
3444;BME280;1736;52.068;6.968;2023-04-22T00:41:35;100365.53;;;8.43;100.00
3444;BME280;1736;52.068;6.968;2023-04-22T00:44:02;100367.00;;;8.36;100.00
3444;BME280;1736;52.068;6.968;2023-04-22T00:46:31;100361.81;;;8.35;100.00
3444;BME280;1736;52.068;6.968;2023-04-22T00:48:59;100359.31;;;8.33;100.00
3444;BME280;1736;52.068;6.968;2023-04-22T00:51:26;100357.28;;;8.26;100.00
3444;BME280;1736;52.068;6.968;2023-04-22T00:53:52;100354.75;;;8.24;100.00
3444;BME280;1736;52.068;6.968;2023-04-22T00:56:20;100350.75;;;8.19;100.00
3444;BME280;1736;52.068;6.968;2023-04-22T00:58:47;100350.13;;;8.15;100.00
3444;BME280;1736;52.068;6.968;2023-04-22T01:01:14;100347.75;;;8.12;100.00
3444;BME280;1736;52.068;6.968;2023-04-22T01:03:42;100353.97;;;8.11;100.00
3444;BME280;1736;52.068;6.968;2023-04-22T01:06:09;100349.78;;;8.09;100.00
3444;BME280;1736;52.068;6.968;2023-04-22T01:08:36;100346.31;;;8.08;100.00
3444;BME280;1736;52.068;6.968;2023-04-22T01:11:02;100350.03;;;8.06;100.00
3444;BME280;1736;52.068;6.968;2023-04-22T01:13:29;100345.81;;;8.03;100.00
3444;BME280;1736;52.068;6.968;2023-04-22T01:15:56;100356.66;;;8.00;100.00
3444;BME280;1736;52.068;6.968;2023-04-22T01:18:24;100349.56;;;7.90;100.00
3444;BME280;1736;52.068;6.968;2023-04-22T01:20:52;100348.94;;;7.86;100.00
3444;BME280;1736;52.068;6.968;2023-04-22T01:23:21;100348.47;;;7.81;100.00
3444;BME280;1736;52.068;6.968;2023-04-22T01:25:48;100337.19;;;7.79;100.00
3444;BME280;1736;52.068;6.968;2023-04-22T01:28:15;100340.75;;;7.78;100.00
3444;BME280;1736;52.068;6.968;2023-04-22T01:30:42;100346.56;;;7.83;100.00
3444;BME280;1736;52.068;6.968;2023-04-22T01:33:10;100349.41;;;7.80;100.00
3444;BME280;1736;52.068;6.968;2023-04-22T01:35:37;100354.22;;;7.75;100.00
3444;BME280;1736;52.068;6.968;2023-04-22T01:38:05;100353.25;;;7.76;100.00
3444;BME280;1736;52.068;6.968;2023-04-22T01:40:33;100346.06;;;7.67;100.00
3444;BME280;1736;52.068;6.968;2023-04-22T01:43:00;100343.63;;;7.64;100.00
3444;BME280;1736;52.068;6.968;2023-04-22T01:45:28;100343.75;;;7.63;100.00
3444;BME280;1736;52.068;6.968;2023-04-22T01:47:54;100349.03;;;7.63;100.00
3444;BME280;1736;52.068;6.968;2023-04-22T01:50:21;100341.13;;;7.63;100.00
3444;BME280;1736;52.068;6.968;2023-04-22T01:52:48;100351.22;;;7.69;100.00
3444;BME280;1736;52.068;6.968;2023-04-22T01:55:15;100341.72;;;7.66;100.00
3444;BME280;1736;52.068;6.968;2023-04-22T01:57:43;100346.16;;;7.66;100.00
3444;BME280;1736;52.068;6.968;2023-04-22T02:00:10;100341.97;;;7.63;100.00
3444;BME280;1736;52.068;6.968;2023-04-22T02:02:37;100341.22;;;7.61;100.00
3444;BME280;1736;52.068;6.968;2023-04-22T02:05:05;100342.41;;;7.57;100.00
3444;BME280;1736;52.068;6.968;2023-04-22T02:07:32;100340.97;;;7.53;100.00
3444;BME280;1736;52.068;6.968;2023-04-22T02:10:00;100334.72;;;7.54;100.00
3444;BME280;1736;52.068;6.968;2023-04-22T02:12:27;100333.06;;;7.53;100.00
3444;BME280;1736;52.068;6.968;2023-04-22T02:14:54;100333.53;;;7.58;100.00
3444;BME280;1736;52.068;6.968;2023-04-22T02:17:21;100331.63;;;7.60;100.00
3444;BME280;1736;52.068;6.968;2023-04-22T02:19:48;100332.84;;;7.67;100.00
3444;BME280;1736;52.068;6.968;2023-04-22T02:22:15;100328.28;;;7.69;100.00
3444;BME280;1736;52.068;6.968;2023-04-22T02:24:42;100325.88;;;7.77;100.00
3444;BME280;1736;52.068;6.968;2023-04-22T02:27:08;100317.72;;;7.80;100.00
3444;BME280;1736;52.068;6.968;2023-04-22T02:29:37;100306.78;;;7.85;100.00
3444;BME280;1736;52.068;6.968;2023-04-22T02:32:05;100313.41;;;7.90;100.00
3444;BME280;1736;52.068;6.968;2023-04-22T02:34:32;100305.97;;;7.95;100.00
3444;BME280;1736;52.068;6.968;2023-04-22T02:36:58;100307.41;;;7.99;100.00
3444;BME280;1736;52.068;6.968;2023-04-22T02:39:25;100308.13;;;8.01;100.00
3444;BME280;1736;52.068;6.968;2023-04-22T02:41:51;100314.09;;;8.03;100.00
3444;BME280;1736;52.068;6.968;2023-04-22T02:44:19;100316.75;;;8.03;100.00
3444;BME280;1736;52.068;6.968;2023-04-22T02:46:45;100316.28;;;8.09;100.00
3444;BME280;1736;52.068;6.968;2023-04-22T02:49:13;100313.13;;;8.15;100.00
3444;BME280;1736;52.068;6.968;2023-04-22T02:51:39;100305.69;;;8.20;100.00
3444;BME280;1736;52.068;6.968;2023-04-22T02:54:06;100310.91;;;8.22;100.00
3444;BME280;1736;52.068;6.968;2023-04-22T02:56:33;100304.66;;;8.23;100.00
3444;BME280;1736;52.068;6.968;2023-04-22T02:58:59;100307.06;;;8.26;100.00
3444;BME280;1736;52.068;6.968;2023-04-22T03:01:26;100313.03;;;8.28;100.00
3444;BME280;1736;52.068;6.968;2023-04-22T03:03:52;100315.31;;;8.32;100.00
3444;BME280;1736;52.068;6.968;2023-04-22T03:06:20;100304.75;;;8.32;100.00
3444;BME280;1736;52.068;6.968;2023-04-22T03:08:49;100305.84;;;8.30;100.00
3444;BME280;1736;52.068;6.968;2023-04-22T03:11:16;100308.84;;;8.25;100.00
3444;BME280;1736;52.068;6.968;2023-04-22T03:13:42;100295.63;;;8.25;100.00
3444;BME280;1736;52.068;6.968;2023-04-22T03:16:09;100303.44;;;8.27;100.00
3444;BME280;1736;52.068;6.968;2023-04-22T03:18:35;100297.53;;;8.23;100.00
3444;BME280;1736;52.068;6.968;2023-04-22T03:21:02;100298.50;;;8.22;100.00
3444;BME280;1736;52.068;6.968;2023-04-22T03:23:30;100292.47;;;8.31;100.00
3444;BME280;1736;52.068;6.968;2023-04-22T03:25:57;100293.44;;;8.41;100.00
3444;BME280;1736;52.068;6.968;2023-04-22T03:28:24;100295.84;;;8.44;100.00
3444;BME280;1736;52.068;6.968;2023-04-22T03:30:51;100293.19;;;8.44;100.00
3444;BME280;1736;52.068;6.968;2023-04-22T03:33:17;100291.00;;;8.49;100.00
3444;BME280;1736;52.068;6.968;2023-04-22T03:35:46;100287.16;;;8.53;100.00
3444;BME280;1736;52.068;6.968;2023-04-22T03:38:13;100286.19;;;8.54;100.00
3444;BME280;1736;52.068;6.968;2023-04-22T03:40:41;100281.88;;;8.53;100.00
3444;BME280;1736;52.068;6.968;2023-04-22T03:43:08;100281.63;;;8.56;100.00
3444;BME280;1736;52.068;6.968;2023-04-22T03:45:34;100275.25;;;8.59;100.00
3444;BME280;1736;52.068;6.968;2023-04-22T03:48:01;100272.47;;;8.60;100.00
3444;BME280;1736;52.068;6.968;2023-04-22T03:50:27;100276.91;;;8.60;100.00
3444;BME280;1736;52.068;6.968;2023-04-22T03:52:54;100276.28;;;8.67;100.00
3444;BME280;1736;52.068;6.968;2023-04-22T03:55:21;100275.56;;;8.65;100.00
3444;BME280;1736;52.068;6.968;2023-04-22T03:57:48;100279.84;;;8.77;100.00
3444;BME280;1736;52.068;6.968;2023-04-22T04:00:15;100274.81;;;8.74;100.00
3444;BME280;1736;52.068;6.968;2023-04-22T04:02:42;100277.09;;;8.79;100.00
3444;BME280;1736;52.068;6.968;2023-04-22T04:05:09;100275.38;;;8.78;100.00
3444;BME280;1736;52.068;6.968;2023-04-22T04:07:36;100272.13;;;8.85;100.00
3444;BME280;1736;52.068;6.968;2023-04-22T04:10:03;100272.31;;;8.93;100.00
3444;BME280;1736;52.068;6.968;2023-04-22T04:12:29;100260.53;;;8.97;100.00
3444;BME280;1736;52.068;6.968;2023-04-22T04:14:57;100263.50;;;9.04;100.00
3444;BME280;1736;52.068;6.968;2023-04-22T04:17:24;100264.44;;;9.03;100.00
3444;BME280;1736;52.068;6.968;2023-04-22T04:19:53;100266.13;;;9.04;100.00
3444;BME280;1736;52.068;6.968;2023-04-22T04:22:19;100265.28;;;9.03;100.00
3444;BME280;1736;52.068;6.968;2023-04-22T04:24:46;100267.69;;;9.06;100.00
3444;BME280;1736;52.068;6.968;2023-04-22T04:27:13;100268.38;;;9.08;100.00
3444;BME280;1736;52.068;6.968;2023-04-22T04:29:39;100262.38;;;9.06;100.00
3444;BME280;1736;52.068;6.968;2023-04-22T04:32:07;100266.06;;;9.15;100.00
3444;BME280;1736;52.068;6.968;2023-04-22T04:34:34;100259.94;;;9.14;100.00
3444;BME280;1736;52.068;6.968;2023-04-22T04:37:01;100254.78;;;9.13;100.00
3444;BME280;1736;52.068;6.968;2023-04-22T04:39:28;100250.16;;;9.15;100.00
3444;BME280;1736;52.068;6.968;2023-04-22T04:41:55;100261.81;;;9.23;100.00
3444;BME280;1736;52.068;6.968;2023-04-22T04:44:22;100247.88;;;9.21;100.00
3444;BME280;1736;52.068;6.968;2023-04-22T04:46:50;100249.66;;;9.21;100.00
3444;BME280;1736;52.068;6.968;2023-04-22T04:49:20;100254.59;;;9.25;100.00
3444;BME280;1736;52.068;6.968;2023-04-22T04:51:47;100253.47;;;9.28;100.00
3444;BME280;1736;52.068;6.968;2023-04-22T04:54:13;100257.94;;;9.27;100.00
3444;BME280;1736;52.068;6.968;2023-04-22T04:56:40;100250.97;;;9.26;100.00
3444;BME280;1736;52.068;6.968;2023-04-22T04:59:07;100253.50;;;9.37;100.00
3444;BME280;1736;52.068;6.968;2023-04-22T05:01:33;100247.66;;;9.34;100.00
3444;BME280;1736;52.068;6.968;2023-04-22T05:04:00;100247.28;;;9.38;100.00
3444;BME280;1736;52.068;6.968;2023-04-22T05:06:28;100243.50;;;9.41;100.00
3444;BME280;1736;52.068;6.968;2023-04-22T05:08:55;100249.50;;;9.43;100.00
3444;BME280;1736;52.068;6.968;2023-04-22T05:11:22;100243.09;;;9.45;100.00
3444;BME280;1736;52.068;6.968;2023-04-22T05:13:48;100234.91;;;9.48;100.00
3444;BME280;1736;52.068;6.968;2023-04-22T05:16:15;100238.41;;;9.49;100.00
3444;BME280;1736;52.068;6.968;2023-04-22T05:18:41;100239.50;;;9.46;100.00
3444;BME280;1736;52.068;6.968;2023-04-22T05:21:08;100239.22;;;9.49;100.00
3444;BME280;1736;52.068;6.968;2023-04-22T05:23:36;100247.16;;;9.49;100.00
3444;BME280;1736;52.068;6.968;2023-04-22T05:26:03;100243.56;;;9.50;100.00
3444;BME280;1736;52.068;6.968;2023-04-22T05:28:30;100247.16;;;9.49;100.00
3444;BME280;1736;52.068;6.968;2023-04-22T05:30:56;100246.41;;;9.58;100.00
3444;BME280;1736;52.068;6.968;2023-04-22T05:33:23;100245.59;;;9.67;100.00
3444;BME280;1736;52.068;6.968;2023-04-22T05:35:49;100248.13;;;9.69;100.00
3444;BME280;1736;52.068;6.968;2023-04-22T05:38:16;100250.34;;;9.73;100.00
3444;BME280;1736;52.068;6.968;2023-04-22T05:40:44;100249.41;;;9.74;100.00
3444;BME280;1736;52.068;6.968;2023-04-22T05:43:10;100248.59;;;9.83;100.00
3444;BME280;1736;52.068;6.968;2023-04-22T05:45:37;100245.69;;;9.86;100.00
3444;BME280;1736;52.068;6.968;2023-04-22T05:48:04;100251.41;;;9.91;100.00
3444;BME280;1736;52.068;6.968;2023-04-22T05:50:30;100259.41;;;10.01;100.00
3444;BME280;1736;52.068;6.968;2023-04-22T05:52:57;100259.94;;;10.04;100.00
3444;BME280;1736;52.068;6.968;2023-04-22T05:55:24;100256.09;;;10.08;100.00
3444;BME280;1736;52.068;6.968;2023-04-22T05:57:51;100247.59;;;10.14;100.00
3444;BME280;1736;52.068;6.968;2023-04-22T06:00:18;100246.06;;;10.21;100.00
3444;BME280;1736;52.068;6.968;2023-04-22T06:02:51;100255.03;;;10.30;100.00
3444;BME280;1736;52.068;6.968;2023-04-22T06:05:17;100239.69;;;10.33;100.00
3444;BME280;1736;52.068;6.968;2023-04-22T06:07:44;100244.59;;;10.38;100.00
3444;BME280;1736;52.068;6.968;2023-04-22T06:10:10;100246.25;;;10.48;100.00
3444;BME280;1736;52.068;6.968;2023-04-22T06:12:37;100236.91;;;10.54;100.00
3444;BME280;1736;52.068;6.968;2023-04-22T06:15:06;100237.47;;;10.57;100.00
3444;BME280;1736;52.068;6.968;2023-04-22T06:17:33;100245.84;;;10.63;100.00
3444;BME280;1736;52.068;6.968;2023-04-22T06:19:59;100237.88;;;10.63;100.00
3444;BME280;1736;52.068;6.968;2023-04-22T06:22:26;100248.63;;;10.71;100.00
3444;BME280;1736;52.068;6.968;2023-04-22T06:24:52;100244.88;;;10.83;100.00
3444;BME280;1736;52.068;6.968;2023-04-22T06:27:19;100249.31;;;10.92;100.00
3444;BME280;1736;52.068;6.968;2023-04-22T06:29:45;100255.34;;;10.94;100.00
3444;BME280;1736;52.068;6.968;2023-04-22T06:32:13;100251.72;;;11.04;100.00
3444;BME280;1736;52.068;6.968;2023-04-22T06:34:40;100255.75;;;11.18;99.12
3444;BME280;1736;52.068;6.968;2023-04-22T06:37:07;100258.81;;;11.23;99.33
3444;BME280;1736;52.068;6.968;2023-04-22T06:39:34;100263.25;;;11.32;98.88
3444;BME280;1736;52.068;6.968;2023-04-22T06:42:00;100254.13;;;11.44;98.70
3444;BME280;1736;52.068;6.968;2023-04-22T06:44:27;100254.53;;;11.49;97.96
3444;BME280;1736;52.068;6.968;2023-04-22T06:46:54;100245.31;;;11.62;96.61
3444;BME280;1736;52.068;6.968;2023-04-22T06:49:22;100239.53;;;11.76;95.84
3444;BME280;1736;52.068;6.968;2023-04-22T06:51:48;100238.09;;;11.82;94.18
3444;BME280;1736;52.068;6.968;2023-04-22T06:54:15;100245.06;;;11.92;94.25
3444;BME280;1736;52.068;6.968;2023-04-22T06:56:41;100244.13;;;12.11;93.84
3444;BME280;1736;52.068;6.968;2023-04-22T06:59:08;100256.16;;;12.32;92.18
3444;BME280;1736;52.068;6.968;2023-04-22T07:01:34;100245.31;;;12.43;92.38
3444;BME280;1736;52.068;6.968;2023-04-22T07:04:01;100239.63;;;12.56;91.16
3444;BME280;1736;52.068;6.968;2023-04-22T07:06:29;100247.28;;;12.59;90.80
3444;BME280;1736;52.068;6.968;2023-04-22T07:08:57;100255.75;;;12.72;89.63
3444;BME280;1736;52.068;6.968;2023-04-22T07:11:23;100253.69;;;12.83;88.62
3444;BME280;1736;52.068;6.968;2023-04-22T07:13:57;100252.25;;;12.89;87.97
3444;BME280;1736;52.068;6.968;2023-04-22T07:16:23;100244.78;;;12.92;87.83
3444;BME280;1736;52.068;6.968;2023-04-22T07:18:50;100237.25;;;12.88;88.49
3444;BME280;1736;52.068;6.968;2023-04-22T07:21:16;100227.75;;;13.03;86.05
3444;BME280;1736;52.068;6.968;2023-04-22T07:23:44;100232.16;;;13.12;87.49
3444;BME280;1736;52.068;6.968;2023-04-22T07:26:11;100227.41;;;13.23;84.87
3444;BME280;1736;52.068;6.968;2023-04-22T07:28:38;100220.88;;;13.43;83.87
3444;BME280;1736;52.068;6.968;2023-04-22T07:31:04;100222.78;;;13.59;83.39
3444;BME280;1736;52.068;6.968;2023-04-22T07:33:31;100224.19;;;13.71;84.26
3444;BME280;1736;52.068;6.968;2023-04-22T07:35:57;100224.47;;;13.93;82.55
3444;BME280;1736;52.068;6.968;2023-04-22T07:38:24;100217.38;;;14.10;81.71
3444;BME280;1736;52.068;6.968;2023-04-22T07:40:52;100216.78;;;14.32;79.46
3444;BME280;1736;52.068;6.968;2023-04-22T07:43:19;100215.19;;;14.55;78.58
3444;BME280;1736;52.068;6.968;2023-04-22T07:45:46;100212.00;;;14.67;77.42
3444;BME280;1736;52.068;6.968;2023-04-22T07:48:12;100219.53;;;14.72;77.41
3444;BME280;1736;52.068;6.968;2023-04-22T07:50:39;100223.03;;;14.96;76.49
3444;BME280;1736;52.068;6.968;2023-04-22T07:53:06;100226.38;;;15.22;76.85
3444;BME280;1736;52.068;6.968;2023-04-22T07:55:34;100219.84;;;15.41;75.71
3444;BME280;1736;52.068;6.968;2023-04-22T07:58:02;100218.97;;;15.57;74.62
3444;BME280;1736;52.068;6.968;2023-04-22T08:00:30;100220.25;;;15.77;73.47
3444;BME280;1736;52.068;6.968;2023-04-22T08:02:57;100214.00;;;15.92;71.02
3444;BME280;1736;52.068;6.968;2023-04-22T08:05:23;100201.31;;;15.94;72.31
3444;BME280;1736;52.068;6.968;2023-04-22T08:07:52;100208.59;;;16.08;72.15
3444;BME280;1736;52.068;6.968;2023-04-22T08:10:18;100193.28;;;16.25;70.47
3444;BME280;1736;52.068;6.968;2023-04-22T08:12:45;100195.66;;;16.50;68.08
3444;BME280;1736;52.068;6.968;2023-04-22T08:15:13;100200.59;;;16.61;67.13
3444;BME280;1736;52.068;6.968;2023-04-22T08:17:39;100189.75;;;16.55;68.02
3444;BME280;1736;52.068;6.968;2023-04-22T08:20:07;100186.22;;;16.62;69.40
3444;BME280;1736;52.068;6.968;2023-04-22T08:22:34;100184.06;;;16.80;68.41
3444;BME280;1736;52.068;6.968;2023-04-22T08:25:00;100176.09;;;17.09;64.40
3444;BME280;1736;52.068;6.968;2023-04-22T08:27:27;100179.34;;;17.19;65.17
3444;BME280;1736;52.068;6.968;2023-04-22T08:29:54;100169.53;;;17.26;64.61
3444;BME280;1736;52.068;6.968;2023-04-22T08:32:21;100163.03;;;17.06;65.58
3444;BME280;1736;52.068;6.968;2023-04-22T08:34:50;100168.91;;;17.24;63.99
3444;BME280;1736;52.068;6.968;2023-04-22T08:37:17;100163.97;;;17.13;65.19
3444;BME280;1736;52.068;6.968;2023-04-22T08:39:43;100172.03;;;17.13;66.52
3444;BME280;1736;52.068;6.968;2023-04-22T08:42:11;100170.13;;;17.36;63.54
3444;BME280;1736;52.068;6.968;2023-04-22T08:44:38;100177.91;;;17.31;64.65
3444;BME280;1736;52.068;6.968;2023-04-22T08:47:05;100181.31;;;17.40;63.59
3444;BME280;1736;52.068;6.968;2023-04-22T08:49:34;100189.13;;;17.49;64.21
3444;BME280;1736;52.068;6.968;2023-04-22T08:52:00;100181.06;;;17.49;64.81
3444;BME280;1736;52.068;6.968;2023-04-22T08:54:27;100185.81;;;17.47;64.19
3444;BME280;1736;52.068;6.968;2023-04-22T08:56:54;100191.44;;;17.52;63.34
3444;BME280;1736;52.068;6.968;2023-04-22T08:59:21;100189.22;;;17.70;65.20
3444;BME280;1736;52.068;6.968;2023-04-22T09:01:51;100190.59;;;17.81;65.28
3444;BME280;1736;52.068;6.968;2023-04-22T09:04:18;100190.41;;;17.82;63.70
3444;BME280;1736;52.068;6.968;2023-04-22T09:06:46;100191.31;;;18.04;64.67
3444;BME280;1736;52.068;6.968;2023-04-22T09:09:13;100174.44;;;18.10;62.33
3444;BME280;1736;52.068;6.968;2023-04-22T09:11:40;100162.13;;;18.15;63.04
3444;BME280;1736;52.068;6.968;2023-04-22T09:14:06;100154.19;;;18.28;61.17
3444;BME280;1736;52.068;6.968;2023-04-22T09:16:39;100143.47;;;18.43;61.78
3444;BME280;1736;52.068;6.968;2023-04-22T09:19:10;100157.38;;;18.74;60.91
3444;BME280;1736;52.068;6.968;2023-04-22T09:21:38;100156.34;;;18.75;59.94
3444;BME280;1736;52.068;6.968;2023-04-22T09:24:08;100161.03;;;18.87;59.60
3444;BME280;1736;52.068;6.968;2023-04-22T09:26:38;100166.66;;;18.92;58.84
3444;BME280;1736;52.068;6.968;2023-04-22T09:29:05;100162.88;;;19.08;58.87
3444;BME280;1736;52.068;6.968;2023-04-22T09:31:33;100157.78;;;19.19;59.29
3444;BME280;1736;52.068;6.968;2023-04-22T09:34:02;100143.28;;;19.20;59.25
3444;BME280;1736;52.068;6.968;2023-04-22T09:36:30;100142.59;;;19.33;59.48
3444;BME280;1736;52.068;6.968;2023-04-22T09:39:01;100146.09;;;19.33;59.20
3444;BME280;1736;52.068;6.968;2023-04-22T09:41:31;100144.31;;;19.47;59.31
3444;BME280;1736;52.068;6.968;2023-04-22T09:44:00;100140.28;;;19.64;59.58
3444;BME280;1736;52.068;6.968;2023-04-22T09:46:28;100141.72;;;19.66;58.32
3444;BME280;1736;52.068;6.968;2023-04-22T09:48:56;100149.75;;;19.53;59.44
3444;BME280;1736;52.068;6.968;2023-04-22T09:51:23;100133.44;;;19.61;57.72
3444;BME280;1736;52.068;6.968;2023-04-22T09:53:58;100140.56;;;19.75;57.43
3444;BME280;1736;52.068;6.968;2023-04-22T09:56:48;100139.53;;;19.76;55.71
3444;BME280;1736;52.068;6.968;2023-04-22T09:59:19;100143.47;;;19.80;56.55
3444;BME280;1736;52.068;6.968;2023-04-22T10:01:55;100143.25;;;19.75;56.28
3444;BME280;1736;52.068;6.968;2023-04-22T10:04:22;100142.25;;;19.83;56.76
3444;BME280;1736;52.068;6.968;2023-04-22T10:06:50;100138.09;;;19.80;57.74
3444;BME280;1736;52.068;6.968;2023-04-22T10:09:18;100142.03;;;19.84;56.69
3444;BME280;1736;52.068;6.968;2023-04-22T10:11:47;100126.31;;;19.94;56.69
3444;BME280;1736;52.068;6.968;2023-04-22T10:14:14;100125.03;;;20.25;56.17
3444;BME280;1736;52.068;6.968;2023-04-22T10:16:44;100116.94;;;20.31;55.84
3444;BME280;1736;52.068;6.968;2023-04-22T10:19:25;100119.44;;;20.33;55.54
3444;BME280;1736;52.068;6.968;2023-04-22T10:21:55;100108.69;;;20.46;56.05
3444;BME280;1736;52.068;6.968;2023-04-22T10:24:25;100107.41;;;20.35;54.38
3444;BME280;1736;52.068;6.968;2023-04-22T10:26:55;100106.16;;;20.25;54.02
3444;BME280;1736;52.068;6.968;2023-04-22T10:29:24;100108.19;;;20.16;54.64
3444;BME280;1736;52.068;6.968;2023-04-22T10:31:53;100107.41;;;20.29;56.61
3444;BME280;1736;52.068;6.968;2023-04-22T10:34:21;100100.59;;;20.46;56.27
3444;BME280;1736;52.068;6.968;2023-04-22T10:36:53;100098.53;;;20.61;54.41
3444;BME280;1736;52.068;6.968;2023-04-22T10:39:20;100104.97;;;20.73;54.20
3444;BME280;1736;52.068;6.968;2023-04-22T10:41:55;100094.00;;;20.94;52.41
3444;BME280;1736;52.068;6.968;2023-04-22T10:44:22;100102.47;;;21.10;50.27
3444;BME280;1736;52.068;6.968;2023-04-22T10:46:59;100094.38;;;21.17;50.76
3444;BME280;1736;52.068;6.968;2023-04-22T10:49:29;100092.91;;;21.34;51.34
3444;BME280;1736;52.068;6.968;2023-04-22T10:51:58;100095.84;;;21.06;50.21
3444;BME280;1736;52.068;6.968;2023-04-22T10:54:56;100088.97;;;21.23;52.47
3444;BME280;1736;52.068;6.968;2023-04-22T10:57:40;100097.44;;;21.40;48.93
3444;BME280;1736;52.068;6.968;2023-04-22T11:00:28;100090.19;;;21.27;49.31
3444;BME280;1736;52.068;6.968;2023-04-22T11:03:07;100081.28;;;21.33;48.94
3444;BME280;1736;52.068;6.968;2023-04-22T11:05:35;100086.06;;;21.38;49.58
3444;BME280;1736;52.068;6.968;2023-04-22T11:08:04;100072.13;;;21.34;49.23
3444;BME280;1736;52.068;6.968;2023-04-22T11:10:36;100081.03;;;21.48;48.36
3444;BME280;1736;52.068;6.968;2023-04-22T11:13:08;100079.72;;;21.57;48.76
3444;BME280;1736;52.068;6.968;2023-04-22T11:15:37;100075.31;;;21.69;48.76
3444;BME280;1736;52.068;6.968;2023-04-22T11:18:09;100068.13;;;21.56;47.69
3444;BME280;1736;52.068;6.968;2023-04-22T11:20:37;100057.09;;;21.58;49.17
3444;BME280;1736;52.068;6.968;2023-04-22T11:23:04;100068.06;;;21.69;47.39
3444;BME280;1736;52.068;6.968;2023-04-22T11:25:31;100070.38;;;21.59;49.44
3444;BME280;1736;52.068;6.968;2023-04-22T11:27:57;100070.78;;;21.63;49.74
3444;BME280;1736;52.068;6.968;2023-04-22T11:30:27;100057.16;;;21.45;49.06
3444;BME280;1736;52.068;6.968;2023-04-22T11:32:56;100058.84;;;21.33;49.41
3444;BME280;1736;52.068;6.968;2023-04-22T11:35:25;100055.13;;;21.27;49.83
3444;BME280;1736;52.068;6.968;2023-04-22T11:37:53;100061.81;;;21.12;50.06
3444;BME280;1736;52.068;6.968;2023-04-22T11:40:22;100066.16;;;21.06;49.71
3444;BME280;1736;52.068;6.968;2023-04-22T11:42:50;100067.03;;;20.94;48.69
3444;BME280;1736;52.068;6.968;2023-04-22T11:45:18;100059.53;;;21.09;49.77
3444;BME280;1736;52.068;6.968;2023-04-22T11:47:48;100063.41;;;21.39;49.07
3444;BME280;1736;52.068;6.968;2023-04-22T11:50:16;100064.38;;;21.57;47.91
3444;BME280;1736;52.068;6.968;2023-04-22T11:52:46;100058.91;;;21.77;46.64
3444;BME280;1736;52.068;6.968;2023-04-22T11:55:13;100062.19;;;21.92;47.03
3444;BME280;1736;52.068;6.968;2023-04-22T11:57:40;100051.00;;;21.82;47.14
3444;BME280;1736;52.068;6.968;2023-04-22T12:00:10;100059.13;;;21.69;46.83
3444;BME280;1736;52.068;6.968;2023-04-22T12:02:37;100051.19;;;21.80;46.88
3444;BME280;1736;52.068;6.968;2023-04-22T12:05:08;100048.91;;;22.15;48.24
3444;BME280;1736;52.068;6.968;2023-04-22T12:07:35;100052.78;;;22.32;48.12
3444;BME280;1736;52.068;6.968;2023-04-22T12:10:04;100058.34;;;22.37;48.38
3444;BME280;1736;52.068;6.968;2023-04-22T12:12:32;100063.75;;;22.37;46.69
3444;BME280;1736;52.068;6.968;2023-04-22T12:15:08;100063.50;;;22.45;46.22
3444;BME280;1736;52.068;6.968;2023-04-22T12:17:34;100060.63;;;22.40;47.11
3444;BME280;1736;52.068;6.968;2023-04-22T12:20:02;100054.84;;;22.30;46.34
3444;BME280;1736;52.068;6.968;2023-04-22T12:22:31;100060.88;;;22.32;46.79
3444;BME280;1736;52.068;6.968;2023-04-22T12:24:59;100062.72;;;22.07;48.13
3444;BME280;1736;52.068;6.968;2023-04-22T12:27:26;100062.41;;;21.84;48.18
3444;BME280;1736;52.068;6.968;2023-04-22T12:29:54;100069.31;;;22.17;47.91
3444;BME280;1736;52.068;6.968;2023-04-22T12:32:22;100060.69;;;22.27;47.15
3444;BME280;1736;52.068;6.968;2023-04-22T12:34:49;100055.13;;;22.22;46.96
3444;BME280;1736;52.068;6.968;2023-04-22T12:37:16;100063.16;;;22.04;47.10
3444;BME280;1736;52.068;6.968;2023-04-22T12:39:44;100056.69;;;22.05;47.66
3444;BME280;1736;52.068;6.968;2023-04-22T12:42:11;100050.78;;;21.83;47.99
3444;BME280;1736;52.068;6.968;2023-04-22T12:44:38;100047.44;;;21.88;47.88
3444;BME280;1736;52.068;6.968;2023-04-22T12:47:05;100036.25;;;21.78;48.64
3444;BME280;1736;52.068;6.968;2023-04-22T12:49:34;100041.56;;;21.97;48.38
3444;BME280;1736;52.068;6.968;2023-04-22T12:52:00;100035.69;;;22.07;48.91
3444;BME280;1736;52.068;6.968;2023-04-22T12:54:27;100039.38;;;22.12;48.91
3444;BME280;1736;52.068;6.968;2023-04-22T12:56:55;100044.66;;;22.32;46.86
3444;BME280;1736;52.068;6.968;2023-04-22T12:59:22;100045.56;;;22.19;47.00
3444;BME280;1736;52.068;6.968;2023-04-22T13:01:48;100037.00;;;22.29;46.74
3444;BME280;1736;52.068;6.968;2023-04-22T13:04:17;100042.66;;;22.21;47.38
3444;BME280;1736;52.068;6.968;2023-04-22T13:06:44;100040.53;;;22.29;48.77
3444;BME280;1736;52.068;6.968;2023-04-22T13:09:11;100042.28;;;22.17;47.61
3444;BME280;1736;52.068;6.968;2023-04-22T13:11:37;100035.56;;;22.26;47.50
3444;BME280;1736;52.068;6.968;2023-04-22T13:14:05;100029.25;;;22.32;48.39